sensor_id;sensor_type;location;lat;lon;timestamp;P1;durP1;ratioP1;P2;durP2;ratioP2
34767;SDS011;21755;43.608;1.236;2023-12-22T00:00:00;39.17;;;6.45;;
34767;SDS011;21755;43.608;1.236;2023-12-22T00:02:26;42.65;;;8.07;;
34767;SDS011;21755;43.608;1.236;2023-12-22T00:04:53;50.55;;;6.65;;
34767;SDS011;21755;43.608;1.236;2023-12-22T00:07:19;29.70;;;5.28;;
34767;SDS011;21755;43.608;1.236;2023-12-22T00:09:45;36.67;;;5.97;;
34767;SDS011;21755;43.608;1.236;2023-12-22T00:12:11;35.03;;;7.60;;
34767;SDS011;21755;43.608;1.236;2023-12-22T00:14:37;38.88;;;6.05;;
34767;SDS011;21755;43.608;1.236;2023-12-22T00:17:05;40.00;;;5.97;;
34767;SDS011;21755;43.608;1.236;2023-12-22T00:19:31;41.63;;;6.68;;
34767;SDS011;21755;43.608;1.236;2023-12-22T00:21:57;37.28;;;6.55;;
34767;SDS011;21755;43.608;1.236;2023-12-22T00:24:23;35.83;;;5.55;;
34767;SDS011;21755;43.608;1.236;2023-12-22T00:26:49;38.42;;;6.05;;
34767;SDS011;21755;43.608;1.236;2023-12-22T00:29:15;33.90;;;5.13;;
34767;SDS011;21755;43.608;1.236;2023-12-22T00:31:41;32.38;;;5.70;;
34767;SDS011;21755;43.608;1.236;2023-12-22T00:34:07;38.92;;;5.47;;
34767;SDS011;21755;43.608;1.236;2023-12-22T00:36:33;35.05;;;6.05;;
34767;SDS011;21755;43.608;1.236;2023-12-22T00:38:59;30.00;;;5.00;;
34767;SDS011;21755;43.608;1.236;2023-12-22T00:41:25;29.67;;;5.13;;
34767;SDS011;21755;43.608;1.236;2023-12-22T00:43:50;29.20;;;4.88;;
34767;SDS011;21755;43.608;1.236;2023-12-22T00:46:16;31.42;;;6.15;;
34767;SDS011;21755;43.608;1.236;2023-12-22T00:48:42;36.35;;;5.28;;
34767;SDS011;21755;43.608;1.236;2023-12-22T00:51:08;29.70;;;5.20;;
34767;SDS011;21755;43.608;1.236;2023-12-22T00:53:34;32.80;;;5.25;;
34767;SDS011;21755;43.608;1.236;2023-12-22T00:56:00;22.38;;;5.05;;
34767;SDS011;21755;43.608;1.236;2023-12-22T00:58:28;27.73;;;3.83;;
34767;SDS011;21755;43.608;1.236;2023-12-22T01:00:55;17.80;;;4.10;;
34767;SDS011;21755;43.608;1.236;2023-12-22T01:03:21;26.13;;;4.07;;
34767;SDS011;21755;43.608;1.236;2023-12-22T01:05:47;21.38;;;3.78;;
34767;SDS011;21755;43.608;1.236;2023-12-22T01:08:13;27.02;;;4.47;;
34767;SDS011;21755;43.608;1.236;2023-12-22T01:10:39;34.15;;;4.65;;
34767;SDS011;21755;43.608;1.236;2023-12-22T01:13:05;26.45;;;4.28;;
34767;SDS011;21755;43.608;1.236;2023-12-22T01:15:31;28.20;;;4.63;;
34767;SDS011;21755;43.608;1.236;2023-12-22T01:17:57;29.45;;;4.20;;
34767;SDS011;21755;43.608;1.236;2023-12-22T01:20:22;23.33;;;3.88;;
34767;SDS011;21755;43.608;1.236;2023-12-22T01:22:48;27.05;;;4.97;;
34767;SDS011;21755;43.608;1.236;2023-12-22T01:25:14;25.20;;;3.67;;
34767;SDS011;21755;43.608;1.236;2023-12-22T01:27:40;19.27;;;3.65;;
34767;SDS011;21755;43.608;1.236;2023-12-22T01:30:06;21.20;;;3.92;;
34767;SDS011;21755;43.608;1.236;2023-12-22T01:32:33;22.42;;;3.25;;
34767;SDS011;21755;43.608;1.236;2023-12-22T01:35:01;22.98;;;3.17;;
34767;SDS011;21755;43.608;1.236;2023-12-22T01:37:32;21.60;;;2.67;;
34767;SDS011;21755;43.608;1.236;2023-12-22T01:39:58;24.20;;;3.38;;
34767;SDS011;21755;43.608;1.236;2023-12-22T01:42:23;15.80;;;3.50;;
34767;SDS011;21755;43.608;1.236;2023-12-22T01:44:49;14.80;;;2.50;;
34767;SDS011;21755;43.608;1.236;2023-12-22T01:47:16;15.68;;;2.42;;
34767;SDS011;21755;43.608;1.236;2023-12-22T01:49:42;18.95;;;3.65;;
34767;SDS011;21755;43.608;1.236;2023-12-22T01:52:08;24.52;;;2.83;;
34767;SDS011;21755;43.608;1.236;2023-12-22T01:54:34;20.08;;;3.55;;
34767;SDS011;21755;43.608;1.236;2023-12-22T01:57:00;17.98;;;2.70;;
34767;SDS011;21755;43.608;1.236;2023-12-22T01:59:27;19.23;;;2.70;;
34767;SDS011;21755;43.608;1.236;2023-12-22T02:01:55;16.35;;;2.50;;
34767;SDS011;21755;43.608;1.236;2023-12-22T02:04:21;11.93;;;2.30;;
34767;SDS011;21755;43.608;1.236;2023-12-22T02:06:49;23.10;;;3.20;;
34767;SDS011;21755;43.608;1.236;2023-12-22T02:09:16;10.80;;;2.22;;
34767;SDS011;21755;43.608;1.236;2023-12-22T02:11:42;16.73;;;2.95;;
34767;SDS011;21755;43.608;1.236;2023-12-22T02:14:08;10.23;;;1.85;;
34767;SDS011;21755;43.608;1.236;2023-12-22T02:16:46;12.52;;;1.80;;
34767;SDS011;21755;43.608;1.236;2023-12-22T02:19:43;9.57;;;2.03;;
34767;SDS011;21755;43.608;1.236;2023-12-22T02:22:11;8.45;;;1.63;;
34767;SDS011;21755;43.608;1.236;2023-12-22T02:24:38;9.93;;;1.35;;
34767;SDS011;21755;43.608;1.236;2023-12-22T02:32:48;9.82;;;1.50;;
34767;SDS011;21755;43.608;1.236;2023-12-22T02:35:20;9.40;;;1.30;;
34767;SDS011;21755;43.608;1.236;2023-12-22T02:37:48;9.20;;;1.45;;
34767;SDS011;21755;43.608;1.236;2023-12-22T02:40:16;9.80;;;1.10;;
34767;SDS011;21755;43.608;1.236;2023-12-22T02:42:43;10.23;;;1.52;;
34767;SDS011;21755;43.608;1.236;2023-12-22T02:45:13;4.20;;;1.20;;
34767;SDS011;21755;43.608;1.236;2023-12-22T02:47:41;7.53;;;1.63;;
34767;SDS011;21755;43.608;1.236;2023-12-22T02:50:07;10.10;;;1.30;;
34767;SDS011;21755;43.608;1.236;2023-12-22T02:52:33;10.10;;;1.42;;
34767;SDS011;21755;43.608;1.236;2023-12-22T02:55:00;6.10;;;1.30;;
34767;SDS011;21755;43.608;1.236;2023-12-22T02:57:27;8.25;;;1.20;;
34767;SDS011;21755;43.608;1.236;2023-12-22T02:59:53;7.20;;;1.20;;
34767;SDS011;21755;43.608;1.236;2023-12-22T03:02:19;7.47;;;1.33;;
34767;SDS011;21755;43.608;1.236;2023-12-22T03:04:44;9.20;;;0.90;;
34767;SDS011;21755;43.608;1.236;2023-12-22T03:07:13;6.65;;;0.90;;
34767;SDS011;21755;43.608;1.236;2023-12-22T03:09:40;3.58;;;0.73;;
34767;SDS011;21755;43.608;1.236;2023-12-22T03:12:07;4.97;;;1.10;;
34767;SDS011;21755;43.608;1.236;2023-12-22T03:14:34;4.50;;;0.90;;
34767;SDS011;21755;43.608;1.236;2023-12-22T03:17:00;6.15;;;0.80;;
34767;SDS011;21755;43.608;1.236;2023-12-22T03:19:27;2.50;;;0.77;;
34767;SDS011;21755;43.608;1.236;2023-12-22T03:21:53;6.47;;;1.00;;
34767;SDS011;21755;43.608;1.236;2023-12-22T03:24:19;6.63;;;0.80;;
34767;SDS011;21755;43.608;1.236;2023-12-22T03:26:47;4.50;;;0.98;;
34767;SDS011;21755;43.608;1.236;2023-12-22T03:29:14;5.45;;;0.88;;
34767;SDS011;21755;43.608;1.236;2023-12-22T03:31:40;6.28;;;1.02;;
34767;SDS011;21755;43.608;1.236;2023-12-22T03:34:06;6.20;;;0.88;;
34767;SDS011;21755;43.608;1.236;2023-12-22T03:36:32;2.42;;;0.93;;
34767;SDS011;21755;43.608;1.236;2023-12-22T03:38:58;9.02;;;0.80;;
34767;SDS011;21755;43.608;1.236;2023-12-22T03:41:24;5.18;;;1.08;;
34767;SDS011;21755;43.608;1.236;2023-12-22T03:43:50;3.53;;;0.60;;
34767;SDS011;21755;43.608;1.236;2023-12-22T03:46:16;7.78;;;0.70;;
34767;SDS011;21755;43.608;1.236;2023-12-22T03:48:42;3.78;;;0.75;;
34767;SDS011;21755;43.608;1.236;2023-12-22T03:51:08;3.38;;;0.50;;
34767;SDS011;21755;43.608;1.236;2023-12-22T03:53:35;1.63;;;0.63;;
34767;SDS011;21755;43.608;1.236;2023-12-22T03:56:01;3.22;;;0.68;;
34767;SDS011;21755;43.608;1.236;2023-12-22T03:58:27;4.18;;;0.52;;
34767;SDS011;21755;43.608;1.236;2023-12-22T04:00:55;3.03;;;0.85;;
34767;SDS011;21755;43.608;1.236;2023-12-22T04:03:21;6.20;;;0.65;;
34767;SDS011;21755;43.608;1.236;2023-12-22T04:05:47;4.75;;;0.88;;
34767;SDS011;21755;43.608;1.236;2023-12-22T04:08:13;2.25;;;1.08;;
34767;SDS011;21755;43.608;1.236;2023-12-22T04:10:39;1.70;;;0.50;;
34767;SDS011;21755;43.608;1.236;2023-12-22T04:13:05;5.10;;;0.50;;
34767;SDS011;21755;43.608;1.236;2023-12-22T04:15:31;2.35;;;0.40;;
34767;SDS011;21755;43.608;1.236;2023-12-22T04:17:57;2.70;;;0.60;;
34767;SDS011;21755;43.608;1.236;2023-12-22T04:20:23;1.40;;;0.50;;
34767;SDS011;21755;43.608;1.236;2023-12-22T04:22:49;3.50;;;0.80;;
34767;SDS011;21755;43.608;1.236;2023-12-22T04:25:15;5.22;;;1.02;;
34767;SDS011;21755;43.608;1.236;2023-12-22T04:27:41;0.80;;;0.32;;
34767;SDS011;21755;43.608;1.236;2023-12-22T04:30:07;3.53;;;0.70;;
34767;SDS011;21755;43.608;1.236;2023-12-22T04:32:33;0.43;;;0.20;;
34767;SDS011;21755;43.608;1.236;2023-12-22T04:34:59;1.23;;;0.50;;
34767;SDS011;21755;43.608;1.236;2023-12-22T04:37:25;1.75;;;0.25;;
34767;SDS011;21755;43.608;1.236;2023-12-22T04:39:51;1.08;;;0.30;;
34767;SDS011;21755;43.608;1.236;2023-12-22T04:42:17;3.35;;;0.30;;
34767;SDS011;21755;43.608;1.236;2023-12-22T04:44:43;0.35;;;0.20;;
34767;SDS011;21755;43.608;1.236;2023-12-22T04:47:09;1.48;;;0.20;;
34767;SDS011;21755;43.608;1.236;2023-12-22T04:49:37;1.73;;;0.20;;
34767;SDS011;21755;43.608;1.236;2023-12-22T04:52:03;2.97;;;0.30;;
34767;SDS011;21755;43.608;1.236;2023-12-22T04:54:29;4.05;;;0.20;;
34767;SDS011;21755;43.608;1.236;2023-12-22T04:56:55;0.52;;;0.20;;
34767;SDS011;21755;43.608;1.236;2023-12-22T04:59:21;1.08;;;0.17;;
34767;SDS011;21755;43.608;1.236;2023-12-22T05:01:47;1.55;;;0.20;;
34767;SDS011;21755;43.608;1.236;2023-12-22T05:04:13;1.20;;;0.30;;
34767;SDS011;21755;43.608;1.236;2023-12-22T05:06:39;1.02;;;0.32;;
34767;SDS011;21755;43.608;1.236;2023-12-22T05:09:05;2.63;;;0.20;;
34767;SDS011;21755;43.608;1.236;2023-12-22T05:11:31;1.60;;;0.20;;
34767;SDS011;21755;43.608;1.236;2023-12-22T05:13:57;0.73;;;0.30;;
34767;SDS011;21755;43.608;1.236;2023-12-22T05:16:23;3.17;;;0.30;;
34767;SDS011;21755;43.608;1.236;2023-12-22T05:18:48;0.30;;;0.20;;
34767;SDS011;21755;43.608;1.236;2023-12-22T05:21:14;0.52;;;0.30;;
34767;SDS011;21755;43.608;1.236;2023-12-22T05:23:40;2.28;;;0.30;;
34767;SDS011;21755;43.608;1.236;2023-12-22T05:26:06;1.52;;;0.30;;
34767;SDS011;21755;43.608;1.236;2023-12-22T05:28:33;2.45;;;0.30;;
34767;SDS011;21755;43.608;1.236;2023-12-22T05:30:59;0.65;;;0.20;;
34767;SDS011;21755;43.608;1.236;2023-12-22T05:33:25;0.77;;;0.30;;
34767;SDS011;21755;43.608;1.236;2023-12-22T05:35:51;1.45;;;0.20;;
34767;SDS011;21755;43.608;1.236;2023-12-22T05:38:17;1.10;;;0.30;;
34767;SDS011;21755;43.608;1.236;2023-12-22T05:40:43;0.50;;;0.40;;
34767;SDS011;21755;43.608;1.236;2023-12-22T05:43:10;1.58;;;0.32;;
34767;SDS011;21755;43.608;1.236;2023-12-22T05:45:35;0.77;;;0.30;;
34767;SDS011;21755;43.608;1.236;2023-12-22T05:48:01;1.48;;;0.30;;
34767;SDS011;21755;43.608;1.236;2023-12-22T05:50:28;0.52;;;0.20;;
34767;SDS011;21755;43.608;1.236;2023-12-22T05:52:53;0.60;;;0.17;;
34767;SDS011;21755;43.608;1.236;2023-12-22T05:55:19;0.20;;;0.20;;
34767;SDS011;21755;43.608;1.236;2023-12-22T05:57:45;0.30;;;0.20;;
34767;SDS011;21755;43.608;1.236;2023-12-22T06:00:11;0.82;;;0.20;;
34767;SDS011;21755;43.608;1.236;2023-12-22T06:02:40;0.75;;;0.20;;
34767;SDS011;21755;43.608;1.236;2023-12-22T06:05:06;0.77;;;0.20;;
34767;SDS011;21755;43.608;1.236;2023-12-22T06:07:32;0.30;;;0.10;;
34767;SDS011;21755;43.608;1.236;2023-12-22T06:09:58;0.50;;;0.10;;
34767;SDS011;21755;43.608;1.236;2023-12-22T06:12:24;0.47;;;0.10;;
34767;SDS011;21755;43.608;1.236;2023-12-22T06:14:50;0.55;;;0.30;;
34767;SDS011;21755;43.608;1.236;2023-12-22T06:17:16;0.47;;;0.30;;
34767;SDS011;21755;43.608;1.236;2023-12-22T06:19:42;0.28;;;0.20;;
34767;SDS011;21755;43.608;1.236;2023-12-22T06:22:08;0.73;;;0.20;;
34767;SDS011;21755;43.608;1.236;2023-12-22T06:24:36;1.35;;;0.20;;
34767;SDS011;21755;43.608;1.236;2023-12-22T06:27:02;2.38;;;0.30;;
34767;SDS011;21755;43.608;1.236;2023-12-22T06:29:28;2.47;;;0.25;;
34767;SDS011;21755;43.608;1.236;2023-12-22T06:31:55;0.98;;;0.32;;
34767;SDS011;21755;43.608;1.236;2023-12-22T06:34:21;3.03;;;0.57;;
34767;SDS011;21755;43.608;1.236;2023-12-22T06:36:47;0.73;;;0.10;;
34767;SDS011;21755;43.608;1.236;2023-12-22T06:39:14;0.50;;;0.10;;
34767;SDS011;21755;43.608;1.236;2023-12-22T06:41:40;0.52;;;0.20;;
34767;SDS011;21755;43.608;1.236;2023-12-22T06:44:06;1.92;;;0.30;;
34767;SDS011;21755;43.608;1.236;2023-12-22T06:46:32;2.97;;;0.20;;
34767;SDS011;21755;43.608;1.236;2023-12-22T06:48:58;0.75;;;0.20;;
34767;SDS011;21755;43.608;1.236;2023-12-22T06:51:25;0.70;;;0.20;;
34767;SDS011;21755;43.608;1.236;2023-12-22T06:53:53;0.30;;;0.20;;
34767;SDS011;21755;43.608;1.236;2023-12-22T06:56:21;0.50;;;0.22;;
34767;SDS011;21755;43.608;1.236;2023-12-22T06:58:51;0.40;;;0.25;;
34767;SDS011;21755;43.608;1.236;2023-12-22T07:01:24;1.13;;;0.30;;
34767;SDS011;21755;43.608;1.236;2023-12-22T07:03:53;0.10;;;0.10;;
34767;SDS011;21755;43.608;1.236;2023-12-22T07:06:20;0.40;;;0.10;;
34767;SDS011;21755;43.608;1.236;2023-12-22T07:09:27;0.60;;;0.20;;
34767;SDS011;21755;43.608;1.236;2023-12-22T07:11:44;0.15;;;0.15;;
34767;SDS011;21755;43.608;1.236;2023-12-22T07:14:11;0.30;;;0.13;;
34767;SDS011;21755;43.608;1.236;2023-12-22T07:16:37;0.90;;;0.30;;
34767;SDS011;21755;43.608;1.236;2023-12-22T07:19:04;0.50;;;0.20;;
34767;SDS011;21755;43.608;1.236;2023-12-22T07:21:30;0.52;;;0.30;;
34767;SDS011;21755;43.608;1.236;2023-12-22T07:23:56;0.20;;;0.20;;
34767;SDS011;21755;43.608;1.236;2023-12-22T07:26:23;1.85;;;0.30;;
34767;SDS011;21755;43.608;1.236;2023-12-22T07:28:51;2.38;;;0.30;;
34767;SDS011;21755;43.608;1.236;2023-12-22T07:31:18;4.07;;;1.45;;
34767;SDS011;21755;43.608;1.236;2023-12-22T07:33:44;0.80;;;0.20;;
34767;SDS011;21755;43.608;1.236;2023-12-22T07:36:10;6.13;;;1.00;;
34767;SDS011;21755;43.608;1.236;2023-12-22T07:38:36;4.03;;;0.40;;
34767;SDS011;21755;43.608;1.236;2023-12-22T07:41:04;0.73;;;0.30;;
34767;SDS011;21755;43.608;1.236;2023-12-22T07:43:30;0.90;;;0.20;;
34767;SDS011;21755;43.608;1.236;2023-12-22T07:45:56;1.15;;;0.30;;
34767;SDS011;21755;43.608;1.236;2023-12-22T07:48:22;0.65;;;0.30;;
34767;SDS011;21755;43.608;1.236;2023-12-22T07:50:50;0.65;;;0.10;;
34767;SDS011;21755;43.608;1.236;2023-12-22T07:53:16;1.17;;;0.20;;
34767;SDS011;21755;43.608;1.236;2023-12-22T07:55:43;1.13;;;0.30;;
34767;SDS011;21755;43.608;1.236;2023-12-22T07:58:09;2.22;;;0.30;;
34767;SDS011;21755;43.608;1.236;2023-12-22T08:00:35;0.35;;;0.20;;
34767;SDS011;21755;43.608;1.236;2023-12-22T08:03:02;1.88;;;0.35;;
34767;SDS011;21755;43.608;1.236;2023-12-22T08:05:28;0.65;;;0.30;;
34767;SDS011;21755;43.608;1.236;2023-12-22T08:07:55;0.52;;;0.30;;
34767;SDS011;21755;43.608;1.236;2023-12-22T08:10:21;1.70;;;0.47;;
34767;SDS011;21755;43.608;1.236;2023-12-22T08:12:47;1.05;;;0.35;;
34767;SDS011;21755;43.608;1.236;2023-12-22T08:15:13;2.75;;;0.40;;
34767;SDS011;21755;43.608;1.236;2023-12-22T08:17:48;0.90;;;0.40;;
34767;SDS011;21755;43.608;1.236;2023-12-22T08:20:18;3.10;;;0.30;;
34767;SDS011;21755;43.608;1.236;2023-12-22T08:22:46;2.92;;;0.40;;
34767;SDS011;21755;43.608;1.236;2023-12-22T08:25:12;5.28;;;1.40;;
34767;SDS011;21755;43.608;1.236;2023-12-22T08:27:38;2.80;;;1.10;;
34767;SDS011;21755;43.608;1.236;2023-12-22T08:30:04;2.95;;;1.10;;
34767;SDS011;21755;43.608;1.236;2023-12-22T08:32:31;3.40;;;1.08;;
34767;SDS011;21755;43.608;1.236;2023-12-22T08:34:57;2.63;;;1.85;;
34767;SDS011;21755;43.608;1.236;2023-12-22T08:37:23;1.88;;;1.20;;
34767;SDS011;21755;43.608;1.236;2023-12-22T08:39:49;4.22;;;1.40;;
34767;SDS011;21755;43.608;1.236;2023-12-22T08:42:16;2.22;;;1.25;;
34767;SDS011;21755;43.608;1.236;2023-12-22T08:44:42;1.88;;;1.30;;
34767;SDS011;21755;43.608;1.236;2023-12-22T08:47:08;5.07;;;1.58;;
34767;SDS011;21755;43.608;1.236;2023-12-22T08:49:34;2.67;;;1.30;;
34767;SDS011;21755;43.608;1.236;2023-12-22T08:52:00;2.08;;;0.90;;
34767;SDS011;21755;43.608;1.236;2023-12-22T08:54:26;2.80;;;0.70;;
34767;SDS011;21755;43.608;1.236;2023-12-22T08:56:52;1.67;;;0.88;;
34767;SDS011;21755;43.608;1.236;2023-12-22T08:59:18;2.08;;;0.55;;
34767;SDS011;21755;43.608;1.236;2023-12-22T09:01:45;1.85;;;0.80;;
34767;SDS011;21755;43.608;1.236;2023-12-22T09:04:10;2.55;;;0.80;;
34767;SDS011;21755;43.608;1.236;2023-12-22T09:06:36;2.05;;;1.10;;
34767;SDS011;21755;43.608;1.236;2023-12-22T09:09:02;1.75;;;1.00;;
34767;SDS011;21755;43.608;1.236;2023-12-22T09:11:29;1.10;;;1.00;;
34767;SDS011;21755;43.608;1.236;2023-12-22T09:13:55;4.43;;;1.23;;
34767;SDS011;21755;43.608;1.236;2023-12-22T09:16:21;2.08;;;1.40;;
34767;SDS011;21755;43.608;1.236;2023-12-22T09:18:48;2.42;;;1.20;;
34767;SDS011;21755;43.608;1.236;2023-12-22T09:21:15;2.88;;;1.45;;
34767;SDS011;21755;43.608;1.236;2023-12-22T09:23:43;2.40;;;1.20;;
34767;SDS011;21755;43.608;1.236;2023-12-22T09:26:15;3.05;;;1.10;;
34767;SDS011;21755;43.608;1.236;2023-12-22T09:28:41;1.67;;;0.80;;
34767;SDS011;21755;43.608;1.236;2023-12-22T09:31:08;0.73;;;0.60;;
34767;SDS011;21755;43.608;1.236;2023-12-22T09:33:35;3.72;;;0.65;;
34767;SDS011;21755;43.608;1.236;2023-12-22T09:36:02;1.02;;;0.70;;
34767;SDS011;21755;43.608;1.236;2023-12-22T09:38:28;0.52;;;0.50;;
34767;SDS011;21755;43.608;1.236;2023-12-22T09:40:54;2.17;;;0.70;;
34767;SDS011;21755;43.608;1.236;2023-12-22T09:43:24;0.77;;;0.52;;
34767;SDS011;21755;43.608;1.236;2023-12-22T09:45:50;1.63;;;0.50;;
34767;SDS011;21755;43.608;1.236;2023-12-22T09:48:20;3.22;;;0.77;;
34767;SDS011;21755;43.608;1.236;2023-12-22T09:50:52;1.70;;;0.32;;
34767;SDS011;21755;43.608;1.236;2023-12-22T09:53:23;0.45;;;0.30;;
34767;SDS011;21755;43.608;1.236;2023-12-22T09:55:50;0.30;;;0.30;;
34767;SDS011;21755;43.608;1.236;2023-12-22T09:58:17;0.32;;;0.32;;
34767;SDS011;21755;43.608;1.236;2023-12-22T10:00:44;0.82;;;0.43;;
34767;SDS011;21755;43.608;1.236;2023-12-22T10:03:10;0.70;;;0.40;;
34767;SDS011;21755;43.608;1.236;2023-12-22T10:05:39;0.77;;;0.60;;
34767;SDS011;21755;43.608;1.236;2023-12-22T10:08:05;0.43;;;0.30;;
34767;SDS011;21755;43.608;1.236;2023-12-22T10:10:35;0.70;;;0.47;;
34767;SDS011;21755;43.608;1.236;2023-12-22T10:13:03;0.40;;;0.38;;
34767;SDS011;21755;43.608;1.236;2023-12-22T10:15:34;0.45;;;0.40;;
34767;SDS011;21755;43.608;1.236;2023-12-22T10:18:10;0.95;;;0.60;;
34767;SDS011;21755;43.608;1.236;2023-12-22T10:20:36;0.73;;;0.40;;
34767;SDS011;21755;43.608;1.236;2023-12-22T10:23:02;1.85;;;0.50;;
34767;SDS011;21755;43.608;1.236;2023-12-22T10:25:28;0.55;;;0.52;;
34767;SDS011;21755;43.608;1.236;2023-12-22T10:27:55;1.42;;;0.95;;
34767;SDS011;21755;43.608;1.236;2023-12-22T10:30:21;1.27;;;0.80;;
34767;SDS011;21755;43.608;1.236;2023-12-22T10:32:52;0.80;;;0.70;;
34767;SDS011;21755;43.608;1.236;2023-12-22T10:35:19;1.55;;;0.80;;
34767;SDS011;21755;43.608;1.236;2023-12-22T10:37:45;0.85;;;0.40;;
34767;SDS011;21755;43.608;1.236;2023-12-22T10:40:12;0.77;;;0.65;;
34767;SDS011;21755;43.608;1.236;2023-12-22T10:42:41;1.42;;;0.40;;
34767;SDS011;21755;43.608;1.236;2023-12-22T10:45:07;0.60;;;0.50;;
34767;SDS011;21755;43.608;1.236;2023-12-22T10:47:34;1.13;;;0.38;;
34767;SDS011;21755;43.608;1.236;2023-12-22T10:50:02;0.70;;;0.40;;
34767;SDS011;21755;43.608;1.236;2023-12-22T10:52:31;0.52;;;0.40;;
34767;SDS011;21755;43.608;1.236;2023-12-22T10:54:58;1.45;;;0.57;;
34767;SDS011;21755;43.608;1.236;2023-12-22T10:57:24;0.85;;;0.47;;
34767;SDS011;21755;43.608;1.236;2023-12-22T10:59:52;1.23;;;0.40;;
34767;SDS011;21755;43.608;1.236;2023-12-22T11:02:21;1.90;;;0.45;;
34767;SDS011;21755;43.608;1.236;2023-12-22T11:07:26;0.47;;;0.40;;
34767;SDS011;21755;43.608;1.236;2023-12-22T11:09:56;0.85;;;0.40;;
34767;SDS011;21755;43.608;1.236;2023-12-22T11:12:23;0.38;;;0.30;;
34767;SDS011;21755;43.608;1.236;2023-12-22T11:14:52;0.75;;;0.47;;
34767;SDS011;21755;43.608;1.236;2023-12-22T11:17:20;2.83;;;0.40;;
34767;SDS011;21755;43.608;1.236;2023-12-22T11:19:48;1.88;;;0.40;;
34767;SDS011;21755;43.608;1.236;2023-12-22T11:22:18;1.13;;;0.40;;
34767;SDS011;21755;43.608;1.236;2023-12-22T11:24:46;0.85;;;0.30;;
34767;SDS011;21755;43.608;1.236;2023-12-22T11:27:19;0.63;;;0.20;;
34767;SDS011;21755;43.608;1.236;2023-12-22T11:29:49;0.88;;;0.50;;
34767;SDS011;21755;43.608;1.236;2023-12-22T11:32:16;1.13;;;0.50;;
34767;SDS011;21755;43.608;1.236;2023-12-22T11:34:45;0.50;;;0.40;;
34767;SDS011;21755;43.608;1.236;2023-12-22T11:37:13;0.77;;;0.57;;
34767;SDS011;21755;43.608;1.236;2023-12-22T11:39:41;0.88;;;0.60;;
34767;SDS011;21755;43.608;1.236;2023-12-22T11:42:11;1.17;;;0.73;;
34767;SDS011;21755;43.608;1.236;2023-12-22T11:44:43;1.75;;;0.65;;
34767;SDS011;21755;43.608;1.236;2023-12-22T11:47:10;0.95;;;0.77;;
34767;SDS011;21755;43.608;1.236;2023-12-22T11:49:38;2.40;;;1.35;;
34767;SDS011;21755;43.608;1.236;2023-12-22T11:52:14;3.30;;;1.15;;
34767;SDS011;21755;43.608;1.236;2023-12-22T11:54:44;5.80;;;3.38;;
34767;SDS011;21755;43.608;1.236;2023-12-22T11:59:56;4.50;;;2.72;;
34767;SDS011;21755;43.608;1.236;2023-12-22T12:02:23;7.63;;;2.08;;
34767;SDS011;21755;43.608;1.236;2023-12-22T12:04:50;3.15;;;1.80;;
34767;SDS011;21755;43.608;1.236;2023-12-22T12:10:11;4.15;;;1.77;;
34767;SDS011;21755;43.608;1.236;2023-12-22T12:12:39;3.67;;;1.17;;
34767;SDS011;21755;43.608;1.236;2023-12-22T12:15:06;3.63;;;1.00;;
34767;SDS011;21755;43.608;1.236;2023-12-22T12:17:39;2.13;;;0.68;;
34767;SDS011;21755;43.608;1.236;2023-12-22T12:20:11;2.05;;;0.80;;
34767;SDS011;21755;43.608;1.236;2023-12-22T12:22:37;0.82;;;0.60;;
34767;SDS011;21755;43.608;1.236;2023-12-22T12:25:08;1.05;;;0.80;;
34767;SDS011;21755;43.608;1.236;2023-12-22T12:27:35;2.15;;;0.80;;
34767;SDS011;21755;43.608;1.236;2023-12-22T12:30:12;1.00;;;0.57;;
34767;SDS011;21755;43.608;1.236;2023-12-22T12:32:41;0.75;;;0.60;;
34767;SDS011;21755;43.608;1.236;2023-12-22T12:35:10;1.35;;;0.70;;
34767;SDS011;21755;43.608;1.236;2023-12-22T12:37:37;3.08;;;1.08;;
34767;SDS011;21755;43.608;1.236;2023-12-22T12:40:05;1.95;;;0.80;;
34767;SDS011;21755;43.608;1.236;2023-12-22T12:42:34;1.30;;;1.17;;
34767;SDS011;21755;43.608;1.236;2023-12-22T12:45:04;1.60;;;1.05;;
34767;SDS011;21755;43.608;1.236;2023-12-22T12:47:31;2.10;;;1.05;;
34767;SDS011;21755;43.608;1.236;2023-12-22T12:49:57;1.35;;;0.90;;
34767;SDS011;21755;43.608;1.236;2023-12-22T12:52:24;2.83;;;1.00;;
34767;SDS011;21755;43.608;1.236;2023-12-22T12:54:51;4.15;;;1.30;;
34767;SDS011;21755;43.608;1.236;2023-12-22T12:57:17;1.90;;;1.30;;
34767;SDS011;21755;43.608;1.236;2023-12-22T12:59:50;2.88;;;1.40;;
34767;SDS011;21755;43.608;1.236;2023-12-22T13:02:16;1.60;;;1.20;;
34767;SDS011;21755;43.608;1.236;2023-12-22T13:04:43;1.83;;;1.02;;
34767;SDS011;21755;43.608;1.236;2023-12-22T13:07:09;1.77;;;1.10;;
34767;SDS011;21755;43.608;1.236;2023-12-22T13:09:37;3.80;;;0.80;;
34767;SDS011;21755;43.608;1.236;2023-12-22T13:12:03;0.77;;;0.77;;
34767;SDS011;21755;43.608;1.236;2023-12-22T13:14:29;1.42;;;1.05;;
34767;SDS011;21755;43.608;1.236;2023-12-22T13:16:56;1.80;;;0.70;;
34767;SDS011;21755;43.608;1.236;2023-12-22T13:19:23;1.33;;;1.00;;
34767;SDS011;21755;43.608;1.236;2023-12-22T13:21:53;2.13;;;1.15;;
34767;SDS011;21755;43.608;1.236;2023-12-22T13:24:19;2.78;;;0.93;;
34767;SDS011;21755;43.608;1.236;2023-12-22T13:26:45;1.05;;;0.60;;
34767;SDS011;21755;43.608;1.236;2023-12-22T13:29:12;1.20;;;0.77;;
34767;SDS011;21755;43.608;1.236;2023-12-22T13:31:39;0.60;;;0.60;;
34767;SDS011;21755;43.608;1.236;2023-12-22T13:34:09;1.00;;;0.68;;
34767;SDS011;21755;43.608;1.236;2023-12-22T13:36:36;2.72;;;0.60;;
34767;SDS011;21755;43.608;1.236;2023-12-22T13:39:02;0.40;;;0.40;;
34767;SDS011;21755;43.608;1.236;2023-12-22T13:41:32;2.85;;;0.50;;
34767;SDS011;21755;43.608;1.236;2023-12-22T13:44:07;0.38;;;0.38;;
34767;SDS011;21755;43.608;1.236;2023-12-22T13:46:33;0.40;;;0.40;;
34767;SDS011;21755;43.608;1.236;2023-12-22T13:49:01;1.73;;;0.60;;
34767;SDS011;21755;43.608;1.236;2023-12-22T13:51:37;0.55;;;0.55;;
34767;SDS011;21755;43.608;1.236;2023-12-22T13:54:04;1.08;;;0.57;;
34767;SDS011;21755;43.608;1.236;2023-12-22T13:56:34;1.23;;;0.52;;
34767;SDS011;21755;43.608;1.236;2023-12-22T13:59:01;2.05;;;0.50;;
34767;SDS011;21755;43.608;1.236;2023-12-22T14:01:28;4.43;;;1.85;;
34767;SDS011;21755;43.608;1.236;2023-12-22T14:03:54;2.90;;;1.60;;
34767;SDS011;21755;43.608;1.236;2023-12-22T14:06:21;2.53;;;1.30;;
34767;SDS011;21755;43.608;1.236;2023-12-22T14:08:47;2.08;;;1.27;;
34767;SDS011;21755;43.608;1.236;2023-12-22T14:11:13;1.33;;;1.10;;
34767;SDS011;21755;43.608;1.236;2023-12-22T14:13:38;3.17;;;1.30;;
34767;SDS011;21755;43.608;1.236;2023-12-22T14:16:06;5.80;;;1.23;;
34767;SDS011;21755;43.608;1.236;2023-12-22T14:18:32;5.28;;;1.50;;
34767;SDS011;21755;43.608;1.236;2023-12-22T14:20:58;4.18;;;1.20;;
34767;SDS011;21755;43.608;1.236;2023-12-22T14:23:24;4.95;;;1.90;;
34767;SDS011;21755;43.608;1.236;2023-12-22T14:25:50;0.98;;;0.68;;
34767;SDS011;21755;43.608;1.236;2023-12-22T14:28:16;1.55;;;0.57;;
34767;SDS011;21755;43.608;1.236;2023-12-22T14:30:42;2.35;;;0.68;;
34767;SDS011;21755;43.608;1.236;2023-12-22T14:33:08;3.15;;;0.80;;
34767;SDS011;21755;43.608;1.236;2023-12-22T14:35:35;3.50;;;1.17;;
34767;SDS011;21755;43.608;1.236;2023-12-22T14:38:02;5.07;;;0.90;;
34767;SDS011;21755;43.608;1.236;2023-12-22T14:40:28;3.00;;;1.17;;
34767;SDS011;21755;43.608;1.236;2023-12-22T14:42:53;3.83;;;0.98;;
34767;SDS011;21755;43.608;1.236;2023-12-22T14:45:19;4.00;;;1.00;;
34767;SDS011;21755;43.608;1.236;2023-12-22T14:47:45;1.92;;;0.60;;
34767;SDS011;21755;43.608;1.236;2023-12-22T14:50:12;0.95;;;0.63;;
34767;SDS011;21755;43.608;1.236;2023-12-22T14:52:38;0.95;;;0.60;;
34767;SDS011;21755;43.608;1.236;2023-12-22T14:55:05;5.57;;;0.88;;
34767;SDS011;21755;43.608;1.236;2023-12-22T14:57:31;6.22;;;0.95;;